createdAt,value
2022-12-18T00:01:53.636Z,-7.37
2022-12-18T00:04:02.126Z,-7.37
2022-12-18T00:06:10.296Z,-7.32
2022-12-18T00:08:15.064Z,-7.30
2022-12-18T00:10:22.744Z,-7.25
2022-12-18T00:12:29.905Z,-7.25
2022-12-18T00:14:35.339Z,-7.26
2022-12-18T00:16:41.372Z,-7.26
2022-12-18T00:18:48.972Z,-7.23
2022-12-18T00:20:53.735Z,-7.28
2022-12-18T00:22:59.336Z,-7.26
2022-12-18T00:25:04.206Z,-7.25
2022-12-18T00:27:09.509Z,-7.27
2022-12-18T00:29:17.410Z,-7.32
2022-12-18T00:31:24.358Z,-7.32
2022-12-18T00:33:31.568Z,-7.39
2022-12-18T00:35:38.952Z,-7.51
2022-12-18T00:37:43.903Z,-7.53
2022-12-18T00:39:52.429Z,-7.58
2022-12-18T00:42:10.822Z,-7.62
2022-12-18T00:44:17.863Z,-7.60
2022-12-18T00:46:23.716Z,-7.72
2022-12-18T00:48:28.508Z,-7.68
2022-12-18T00:50:33.267Z,-7.65
2022-12-18T00:52:44.052Z,-7.61
2022-12-18T00:54:48.851Z,-7.53
2022-12-18T00:56:53.699Z,-7.48
2022-12-18T00:58:58.507Z,-7.47
2022-12-18T01:01:03.379Z,-7.44
2022-12-18T01:03:08.141Z,-7.41
2022-12-18T01:05:15.011Z,-7.39
2022-12-18T01:07:19.853Z,-7.42
2022-12-18T01:09:27.335Z,-7.48
2022-12-18T01:11:32.175Z,-7.63
2022-12-18T01:13:37.316Z,-7.74
2022-12-18T01:15:42.708Z,-7.77
2022-12-18T01:17:49.257Z,-7.77
2022-12-18T01:19:54.174Z,-7.81
2022-12-18T01:21:58.825Z,-7.75
2022-12-18T01:24:03.777Z,-7.70
2022-12-18T01:26:12.370Z,-7.63
2022-12-18T01:28:17.211Z,-7.61
2022-12-18T01:30:22.119Z,-7.60
2022-12-18T01:32:26.708Z,-7.58
2022-12-18T01:34:31.566Z,-7.61
2022-12-18T01:36:38.622Z,-7.59
2022-12-18T01:38:43.441Z,-7.56
2022-12-18T01:40:48.181Z,-7.52
2022-12-18T01:42:56.910Z,-7.48
2022-12-18T01:45:03.242Z,-7.51
2022-12-18T01:47:08.378Z,-7.41
2022-12-18T01:49:15.494Z,-7.32
2022-12-18T01:51:20.807Z,-7.22
2022-12-18T01:53:27.573Z,-7.17
2022-12-18T01:55:35.155Z,-7.09
2022-12-18T01:57:42.990Z,-7.06
2022-12-18T01:59:55.147Z,-7.00
2022-12-18T02:02:01.045Z,-6.98
2022-12-18T02:04:24.200Z,-6.92
2022-12-18T02:06:36.587Z,-6.83
2022-12-18T02:08:48.369Z,-6.74
2022-12-18T02:11:01.089Z,-6.66
2022-12-18T02:13:16.188Z,-6.60
2022-12-18T02:15:31.134Z,-6.57
2022-12-18T02:17:41.068Z,-6.52
2022-12-18T02:19:59.279Z,-6.48
2022-12-18T02:22:22.626Z,-6.51
2022-12-18T02:24:37.055Z,-6.51
2022-12-18T02:26:48.935Z,-6.43
2022-12-18T02:29:01.961Z,-6.36
2022-12-18T02:31:12.692Z,-6.35
2022-12-18T02:33:19.189Z,-6.30
2022-12-18T02:35:27.728Z,-6.25
2022-12-18T02:37:37.603Z,-6.21
2022-12-18T02:39:47.146Z,-6.17
2022-12-18T02:41:56.282Z,-6.15
2022-12-18T02:44:05.973Z,-6.10
2022-12-18T02:46:31.116Z,-5.93
2022-12-18T02:48:39.178Z,-5.82
2022-12-18T02:50:49.161Z,-5.74
2022-12-18T02:53:06.969Z,-5.63
2022-12-18T02:55:27.607Z,-5.52
2022-12-18T02:57:46.644Z,-5.45
2022-12-18T03:00:01.482Z,-5.41
2022-12-18T03:02:20.059Z,-5.42
2022-12-18T03:04:30.326Z,-5.41
2022-12-18T03:06:41.434Z,-5.47
2022-12-18T03:08:49.225Z,-5.49
2022-12-18T03:11:02.097Z,-5.50
2022-12-18T03:13:15.774Z,-5.58
2022-12-18T03:15:24.895Z,-5.51
2022-12-18T03:17:37.872Z,-5.43
2022-12-18T03:19:44.933Z,-5.48
2022-12-18T03:21:53.346Z,-5.50
2022-12-18T03:23:59.442Z,-5.44
2022-12-18T03:26:10.937Z,-5.36
2022-12-18T03:28:25.471Z,-5.33
2022-12-18T03:30:41.214Z,-5.30
2022-12-18T03:32:51.783Z,-5.21
2022-12-18T03:35:02.252Z,-5.19
2022-12-18T03:37:11.237Z,-5.18
2022-12-18T03:39:16.191Z,-5.12
2022-12-18T03:41:34.517Z,-5.06
2022-12-18T03:44:06.126Z,-4.98
2022-12-18T03:46:20.860Z,-4.92
2022-12-18T03:48:36.535Z,-4.96
2022-12-18T03:50:53.603Z,-4.90
2022-12-18T03:53:06.675Z,-4.91
2022-12-18T03:55:13.622Z,-4.90
2022-12-18T03:57:22.411Z,-4.87
2022-12-18T03:59:34.383Z,-4.78
2022-12-18T04:01:43.689Z,-4.68
2022-12-18T04:03:53.134Z,-4.60
2022-12-18T04:06:01.460Z,-4.58
2022-12-18T04:08:07.535Z,-4.57
2022-12-18T04:10:17.633Z,-4.51
2022-12-18T04:12:23.432Z,-4.54
2022-12-18T04:14:28.327Z,-4.55
2022-12-18T04:16:37.870Z,-4.56
2022-12-18T04:18:44.680Z,-4.62
2022-12-18T04:20:49.971Z,-4.63
2022-12-18T04:22:56.223Z,-4.61
2022-12-18T04:25:01.641Z,-4.73
2022-12-18T04:27:15.751Z,-4.83
2022-12-18T04:29:25.550Z,-4.83
2022-12-18T04:31:30.409Z,-4.86
2022-12-18T04:33:38.443Z,-4.97
2022-12-18T04:35:45.737Z,-5.07
2022-12-18T04:37:51.964Z,-5.15
2022-12-18T04:39:56.506Z,-5.22
2022-12-18T04:42:09.527Z,-5.31
2022-12-18T04:44:14.430Z,-5.32
2022-12-18T04:46:19.031Z,-5.39
2022-12-18T04:48:24.486Z,-5.48
2022-12-18T04:50:43.889Z,-5.44
2022-12-18T04:52:49.617Z,-5.36
2022-12-18T04:54:54.434Z,-5.33
2022-12-18T04:56:59.223Z,-5.22
2022-12-18T04:59:05.057Z,-5.20
2022-12-18T05:01:11.138Z,-5.13
2022-12-18T05:03:15.897Z,-5.07
2022-12-18T05:05:20.803Z,-4.99
2022-12-18T05:07:28.052Z,-4.93
2022-12-18T05:09:32.886Z,-4.86
2022-12-18T05:11:40.843Z,-4.76
2022-12-18T05:13:46.485Z,-4.71
2022-12-18T05:15:55.228Z,-4.60
2022-12-18T05:18:00.405Z,-4.55
2022-12-18T05:20:06.008Z,-4.50
2022-12-18T05:22:13.804Z,-4.47
2022-12-18T05:24:21.203Z,-4.49
2022-12-18T05:26:25.993Z,-4.45
2022-12-18T05:28:32.561Z,-4.36
2022-12-18T05:30:37.423Z,-4.30
2022-12-18T05:32:42.600Z,-4.26
2022-12-18T05:34:47.344Z,-4.23
2022-12-18T05:36:52.439Z,-4.20
2022-12-18T05:38:56.933Z,-4.22
2022-12-18T05:41:04.441Z,-4.21
2022-12-18T05:43:09.722Z,-4.22
2022-12-18T05:45:14.611Z,-4.17
2022-12-18T05:47:19.441Z,-4.12
2022-12-18T05:49:24.379Z,-4.17
2022-12-18T05:51:29.210Z,-4.27
2022-12-18T05:53:34.050Z,-4.24
2022-12-18T05:55:40.089Z,-4.25
2022-12-18T05:57:47.564Z,-4.29
2022-12-18T05:59:52.561Z,-4.37
2022-12-18T06:01:57.581Z,-4.38
2022-12-18T06:04:02.509Z,-4.43
2022-12-18T06:06:16.051Z,-4.41
2022-12-18T06:08:20.996Z,-4.40
2022-12-18T06:10:25.772Z,-4.45
2022-12-18T06:12:30.527Z,-4.46
2022-12-18T06:14:37.890Z,-4.52
2022-12-18T06:16:42.938Z,-4.59
2022-12-18T06:18:47.467Z,-4.67
2022-12-18T06:20:58.821Z,-4.74
2022-12-18T06:23:03.838Z,-4.78
2022-12-18T06:25:10.100Z,-4.84
2022-12-18T06:27:15.155Z,-4.84
2022-12-18T06:29:19.960Z,-4.78
2022-12-18T06:31:27.491Z,-4.76
2022-12-18T06:33:32.590Z,-4.72
2022-12-18T06:35:37.551Z,-4.64
2022-12-18T06:37:42.284Z,-4.55
2022-12-18T06:39:47.099Z,-4.51
2022-12-18T06:41:51.842Z,-4.43
2022-12-18T06:43:59.723Z,-4.37
2022-12-18T06:46:06.087Z,-4.29
2022-12-18T06:48:13.763Z,-4.22
2022-12-18T06:50:18.625Z,-4.14
2022-12-18T06:52:23.420Z,-4.15
2022-12-18T06:54:28.214Z,-4.13
2022-12-18T06:56:33.068Z,-4.15
2022-12-18T06:58:37.909Z,-4.17
2022-12-18T07:00:42.813Z,-4.22
2022-12-18T07:02:48.420Z,-4.21
2022-12-18T07:04:58.778Z,-4.18
2022-12-18T07:07:03.625Z,-4.20
2022-12-18T07:09:08.418Z,-4.12
2022-12-18T07:11:13.214Z,-4.07
2022-12-18T07:13:18.081Z,-4.08
2022-12-18T07:15:22.796Z,-4.16
2022-12-18T07:17:27.636Z,-4.25
2022-12-18T07:19:33.401Z,-4.23
2022-12-18T07:21:41.181Z,-4.19
2022-12-18T07:23:49.237Z,-4.13
2022-12-18T07:25:54.263Z,-4.08
2022-12-18T07:27:59.027Z,-4.06
2022-12-18T07:30:03.949Z,-4.07
2022-12-18T07:32:11.529Z,-3.99
2022-12-18T07:34:18.448Z,-3.90
2022-12-18T07:36:26.777Z,-3.83
2022-12-18T07:38:34.501Z,-3.82
2022-12-18T07:40:39.268Z,-3.84
2022-12-18T07:42:44.170Z,-3.82
2022-12-18T07:44:48.953Z,-3.77
2022-12-18T07:46:53.736Z,-3.72
2022-12-18T07:48:58.528Z,-3.64
2022-12-18T07:51:03.787Z,-3.62
2022-12-18T07:53:08.558Z,-3.71
2022-12-18T07:55:16.066Z,-3.74
2022-12-18T07:57:49.014Z,-3.75
2022-12-18T07:59:46.130Z,-3.74
2022-12-18T08:01:51.099Z,-3.64
2022-12-18T08:03:56.130Z,-3.58
2022-12-18T08:06:03.121Z,-3.54
2022-12-18T08:08:08.301Z,-3.52
2022-12-18T08:10:15.570Z,-3.49
2022-12-18T08:12:20.479Z,-3.43
2022-12-18T08:14:25.273Z,-3.33
2022-12-18T08:16:31.360Z,-3.26
2022-12-18T08:18:38.893Z,-3.17
2022-12-18T08:20:46.797Z,-3.05
2022-12-18T08:22:51.665Z,-2.93
2022-12-18T08:24:56.517Z,-2.90
2022-12-18T08:27:28.329Z,-2.88
2022-12-18T08:29:29.169Z,-2.79
2022-12-18T08:31:34.321Z,-2.74
2022-12-18T08:33:40.864Z,-2.83
2022-12-18T08:35:46.431Z,-2.76
2022-12-18T08:37:51.511Z,-2.67
2022-12-18T08:39:56.015Z,-2.58
2022-12-18T08:42:15.909Z,-2.57
2022-12-18T08:44:33.158Z,-2.57
2022-12-18T08:46:41.328Z,-2.59
2022-12-18T08:48:46.216Z,-2.53
2022-12-18T08:50:58.526Z,-2.52
2022-12-18T08:53:03.676Z,-2.55
2022-12-18T08:55:09.429Z,-2.49
2022-12-18T08:57:17.169Z,-2.45
2022-12-18T08:59:22.644Z,-2.41
2022-12-18T09:01:28.295Z,-2.43
2022-12-18T09:03:33.676Z,-2.40
2022-12-18T09:05:41.330Z,-2.44
2022-12-18T09:07:46.201Z,-2.39
2022-12-18T09:09:51.105Z,-2.43
2022-12-18T09:11:55.981Z,-2.38
2022-12-18T09:14:04.346Z,-2.29
2022-12-18T09:16:10.910Z,-2.18
2022-12-18T09:18:16.212Z,-2.17
2022-12-18T09:20:21.690Z,-2.26
2022-12-18T09:22:26.486Z,-2.32
2022-12-18T09:24:36.735Z,-2.23
2022-12-18T09:26:41.549Z,-2.23
2022-12-18T09:28:51.905Z,-2.28
2022-12-18T09:30:59.278Z,-2.25
2022-12-18T09:33:04.486Z,-2.14
2022-12-18T09:35:11.514Z,-2.03
2022-12-18T09:37:16.056Z,-1.98
2022-12-18T09:39:22.451Z,-1.96
2022-12-18T09:41:45.241Z,-1.96
2022-12-18T09:43:54.464Z,-1.94
2022-12-18T09:46:05.581Z,-1.85
2022-12-18T09:48:14.856Z,-1.68
2022-12-18T09:50:30.729Z,-1.66
2022-12-18T09:52:39.624Z,-1.79
2022-12-18T09:54:45.725Z,-1.95
2022-12-18T09:56:51.021Z,-2.08
2022-12-18T09:59:01.946Z,-2.11
2022-12-18T10:01:14.776Z,-2.18
2022-12-18T10:03:22.072Z,-2.21
2022-12-18T10:05:38.108Z,-2.33
2022-12-18T10:07:53.753Z,-2.37
2022-12-18T10:10:04.951Z,-2.41
2022-12-18T10:12:16.323Z,-2.41
2022-12-18T10:14:26.496Z,-2.37
2022-12-18T10:16:43.176Z,-2.29
2022-12-18T10:19:17.527Z,-2.20
2022-12-18T10:21:28.601Z,-2.21
2022-12-18T10:23:48.008Z,-2.11
2022-12-18T10:25:59.292Z,-2.07
2022-12-18T10:28:14.373Z,-2.10
2022-12-18T10:30:21.286Z,-2.08
2022-12-18T10:32:31.253Z,-2.09
2022-12-18T10:34:36.446Z,-2.11
2022-12-18T10:36:41.963Z,-2.14
2022-12-18T10:38:47.142Z,-2.12
2022-12-18T10:40:53.222Z,-2.15
2022-12-18T10:43:14.606Z,-2.13
2022-12-18T10:45:21.337Z,-1.98
2022-12-18T10:47:28.748Z,-1.86
2022-12-18T10:49:37.960Z,-1.78
2022-12-18T10:51:42.958Z,-1.60
2022-12-18T10:53:58.466Z,-1.58
2022-12-18T10:56:06.371Z,-1.58
2022-12-18T10:58:26.315Z,-1.57
2022-12-18T11:00:33.511Z,-1.60
2022-12-18T11:02:42.108Z,-1.56
2022-12-18T11:04:55.393Z,-1.52
2022-12-18T11:07:03.189Z,-1.44
2022-12-18T11:09:21.816Z,-1.30
2022-12-18T11:11:28.036Z,-1.26
2022-12-18T11:13:35.116Z,-1.28
2022-12-18T11:15:40.939Z,-1.27
2022-12-18T11:17:52.104Z,-1.20
2022-12-18T11:19:58.215Z,-1.19
2022-12-18T11:22:04.719Z,-1.23
2022-12-18T11:24:23.802Z,-1.30
2022-12-18T11:26:41.425Z,-1.41
2022-12-18T11:28:50.137Z,-1.47
2022-12-18T11:31:15.750Z,-1.49
2022-12-18T11:33:25.959Z,-1.47
2022-12-18T11:35:43.110Z,-1.42
2022-12-18T11:37:53.478Z,-1.40
2022-12-18T11:40:03.234Z,-1.37
2022-12-18T11:42:14.316Z,-1.35
2022-12-18T11:44:25.867Z,-1.35
2022-12-18T11:46:39.644Z,-1.37
2022-12-18T11:48:53.691Z,-1.38
2022-12-18T11:51:00.291Z,-1.42
2022-12-18T11:53:06.599Z,-1.43
2022-12-18T11:55:16.619Z,-1.44
2022-12-18T11:57:35.327Z,-1.42
2022-12-18T11:59:45.611Z,-1.41
2022-12-18T12:01:55.624Z,-1.35
2022-12-18T12:04:25.384Z,-1.41
2022-12-18T12:06:40.945Z,-1.47
2022-12-18T12:09:00.458Z,-1.49
2022-12-18T12:11:11.015Z,-1.45
2022-12-18T12:13:29.799Z,-1.43
2022-12-18T12:15:42.736Z,-1.41
2022-12-18T12:17:54.981Z,-1.33
2022-12-18T12:20:13.040Z,-1.32
2022-12-18T12:22:25.926Z,-1.29
2022-12-18T12:24:42.367Z,-1.35
2022-12-18T12:26:53.836Z,-1.28
2022-12-18T12:29:10.597Z,-1.24
2022-12-18T12:31:29.460Z,-1.12
2022-12-18T12:33:47.860Z,-1.06
2022-12-18T12:36:04.792Z,-0.99
2022-12-18T12:38:14.665Z,-0.99
2022-12-18T12:40:51.203Z,-1.01
2022-12-18T12:43:08.923Z,-1.02
2022-12-18T12:45:22.815Z,-0.98
2022-12-18T12:47:31.430Z,-0.98
2022-12-18T12:49:40.826Z,-0.97
2022-12-18T12:51:57.883Z,-0.97
2022-12-18T12:54:05.617Z,-0.94
2022-12-18T12:56:14.958Z,-0.91
2022-12-18T12:58:29.210Z,-0.92
2022-12-18T13:00:43.136Z,-0.92
2022-12-18T13:02:55.198Z,-1.02
2022-12-18T13:05:04.632Z,-1.07
2022-12-18T13:07:19.530Z,-1.08
2022-12-18T13:09:24.764Z,-1.14
2022-12-18T13:11:59.986Z,-1.15
2022-12-18T13:14:05.773Z,-1.12
2022-12-18T13:16:11.724Z,-1.09
2022-12-18T13:18:23.628Z,-1.09
2022-12-18T13:20:38.101Z,-1.14
2022-12-18T13:22:48.740Z,-1.23
2022-12-18T13:24:54.404Z,-1.29
2022-12-18T13:27:00.355Z,-1.26
2022-12-18T13:29:07.139Z,-1.16
2022-12-18T13:31:12.063Z,-1.17
2022-12-18T13:36:32.107Z,-1.18
2022-12-18T13:38:42.366Z,-1.21
2022-12-18T13:41:15.405Z,-1.21
2022-12-18T13:43:38.905Z,-1.31
2022-12-18T13:45:49.660Z,-1.35
2022-12-18T13:47:54.626Z,-1.33
2022-12-18T13:50:01.005Z,-1.35
2022-12-18T13:52:07.114Z,-1.24
2022-12-18T13:54:23.496Z,-1.23
2022-12-18T13:56:29.897Z,-1.30
2022-12-18T13:58:38.041Z,-1.38
2022-12-18T14:00:46.154Z,-1.33
2022-12-18T14:02:52.610Z,-1.38
2022-12-18T14:04:58.768Z,-1.43
2022-12-18T14:07:08.191Z,-1.54
2022-12-18T14:09:21.596Z,-1.56
2022-12-18T14:11:27.086Z,-1.57
2022-12-18T14:13:35.892Z,-1.60
2022-12-18T14:15:44.597Z,-1.60
2022-12-18T14:17:50.660Z,-1.68
2022-12-18T14:19:55.609Z,-1.63
2022-12-18T14:22:00.464Z,-1.65
2022-12-18T14:24:16.788Z,-1.68
2022-12-18T14:26:30.387Z,-1.73
2022-12-18T14:28:37.982Z,-1.75
2022-12-18T14:30:44.550Z,-1.70
2022-12-18T14:33:03.668Z,-1.71
2022-12-18T14:35:17.319Z,-1.76
2022-12-18T14:38:06.651Z,-1.88
2022-12-18T14:40:17.448Z,-1.91
2022-12-18T14:42:29.267Z,-1.93
2022-12-18T14:44:44.288Z,-1.89
2022-12-18T14:46:56.041Z,-1.96
2022-12-18T14:49:00.757Z,-2.04
2022-12-18T14:51:08.718Z,-2.07
2022-12-18T14:53:24.964Z,-2.08
2022-12-18T14:55:30.215Z,-2.05
2022-12-18T14:57:44.612Z,-2.00
2022-12-18T14:59:49.734Z,-2.09
2022-12-18T15:02:02.348Z,-1.99
2022-12-18T15:04:26.474Z,-2.07
2022-12-18T15:06:38.198Z,-2.07
2022-12-18T15:08:43.002Z,-2.08
2022-12-18T15:10:52.161Z,-2.21
2022-12-18T15:13:24.387Z,-2.16
2022-12-18T15:15:51.226Z,-2.16
2022-12-18T15:18:03.904Z,-2.20
2022-12-18T15:20:15.156Z,-2.19
2022-12-18T15:22:24.650Z,-2.17
2022-12-18T15:24:34.676Z,-2.17
2022-12-18T15:26:41.291Z,-2.24
2022-12-18T15:28:51.994Z,-2.31
2022-12-18T15:31:08.681Z,-2.34
2022-12-18T15:33:28.659Z,-2.37
2022-12-18T15:35:34.782Z,-2.44
2022-12-18T15:37:42.000Z,-2.47
2022-12-18T15:39:47.113Z,-2.52
2022-12-18T15:42:04.893Z,-2.50
2022-12-18T15:44:27.553Z,-2.48
2022-12-18T15:46:32.555Z,-2.55
2022-12-18T15:48:38.574Z,-2.52
2022-12-18T15:50:43.460Z,-2.46
2022-12-18T15:52:50.754Z,-2.41
2022-12-18T15:55:08.113Z,-2.38
2022-12-18T15:57:29.333Z,-2.39
2022-12-18T15:59:37.198Z,-2.31
2022-12-18T16:01:43.191Z,-2.34
2022-12-18T16:03:48.149Z,-2.38
2022-12-18T16:05:53.091Z,-2.48
2022-12-18T16:07:59.283Z,-2.50
2022-12-18T16:10:04.165Z,-2.55
2022-12-18T16:12:09.130Z,-2.54
2022-12-18T16:14:20.635Z,-2.61
2022-12-18T16:16:28.152Z,-2.61
2022-12-18T16:18:33.984Z,-2.61
2022-12-18T16:20:42.246Z,-2.66
2022-12-18T16:22:48.889Z,-2.66
2022-12-18T16:24:54.411Z,-2.62
2022-12-18T16:27:01.061Z,-2.68
2022-12-18T16:29:05.955Z,-2.75
2022-12-18T16:31:15.163Z,-2.65
2022-12-18T16:33:22.564Z,-2.66
2022-12-18T16:35:28.670Z,-2.60
2022-12-18T16:37:33.518Z,-2.67
2022-12-18T16:39:40.951Z,-2.74
2022-12-18T16:41:45.993Z,-2.76
2022-12-18T16:43:54.839Z,-2.75
2022-12-18T16:46:02.470Z,-2.74
2022-12-18T16:48:07.921Z,-2.84
2022-12-18T16:50:15.685Z,-2.86
2022-12-18T16:52:20.573Z,-2.83
2022-12-18T16:54:25.552Z,-2.81
2022-12-18T16:56:30.646Z,-2.82
2022-12-18T16:58:37.673Z,-2.81
2022-12-18T17:00:43.972Z,-2.88
2022-12-18T17:02:48.964Z,-2.90
2022-12-18T17:04:57.130Z,-2.92
2022-12-18T17:07:04.910Z,-2.98
2022-12-18T17:09:11.713Z,-2.96
2022-12-18T17:11:16.816Z,-2.91
2022-12-18T17:13:26.128Z,-2.86
2022-12-18T17:15:30.952Z,-2.87
2022-12-18T17:17:36.677Z,-2.90
2022-12-18T17:19:45.269Z,-2.91
2022-12-18T17:21:52.624Z,-2.89
2022-12-18T17:24:02.442Z,-2.90
2022-12-18T17:26:08.393Z,-2.97
2022-12-18T17:28:13.971Z,-3.01
2022-12-18T17:30:18.878Z,-3.03
2022-12-18T17:32:24.614Z,-3.03
2022-12-18T17:34:29.772Z,-3.00
2022-12-18T17:36:35.602Z,-2.97
2022-12-18T17:38:43.034Z,-2.97
2022-12-18T17:40:50.416Z,-3.03
2022-12-18T17:42:56.028Z,-3.05
2022-12-18T17:45:00.714Z,-3.06
2022-12-18T17:47:06.300Z,-3.04
2022-12-18T17:49:11.162Z,-2.98
2022-12-18T17:51:18.212Z,-2.98
2022-12-18T17:53:23.060Z,-3.04
2022-12-18T17:55:28.427Z,-3.09
2022-12-18T17:57:38.219Z,-3.03
2022-12-18T17:59:43.020Z,-3.02
2022-12-18T18:01:48.059Z,-3.01
2022-12-18T18:03:54.133Z,-2.95
2022-12-18T18:05:59.188Z,-2.93
2022-12-18T18:08:03.844Z,-2.97
2022-12-18T18:10:10.487Z,-2.96
2022-12-18T18:12:27.730Z,-2.94
2022-12-18T18:14:35.618Z,-2.95
2022-12-18T18:16:43.079Z,-2.99
2022-12-18T18:18:47.951Z,-3.03
2022-12-18T18:20:53.972Z,-2.96
2022-12-18T18:22:59.420Z,-2.90
2022-12-18T18:25:04.937Z,-2.89
2022-12-18T18:27:10.351Z,-2.91
2022-12-18T18:29:18.021Z,-2.98
2022-12-18T18:31:39.681Z,-2.90
2022-12-18T18:33:45.986Z,-2.89
2022-12-18T18:35:54.766Z,-2.82
2022-12-18T18:37:59.767Z,-2.81
2022-12-18T18:40:04.589Z,-2.73
2022-12-18T18:42:09.427Z,-2.71
2022-12-18T18:44:14.569Z,-2.64
2022-12-18T18:46:19.679Z,-2.67
2022-12-18T18:48:27.356Z,-2.63
2022-12-18T18:50:34.910Z,-2.66
2022-12-18T18:52:39.918Z,-2.66
2022-12-18T18:55:10.742Z,-2.65
2022-12-18T18:57:20.424Z,-2.71
2022-12-18T18:59:31.370Z,-2.68
2022-12-18T19:01:39.595Z,-2.74
2022-12-18T19:03:48.214Z,-2.72
2022-12-18T19:05:55.861Z,-2.71
2022-12-18T19:08:03.088Z,-2.75
2022-12-18T19:10:09.215Z,-2.75
2022-12-18T19:12:26.547Z,-2.75
2022-12-18T19:14:31.970Z,-2.80
2022-12-18T19:16:38.383Z,-2.74
2022-12-18T19:18:43.921Z,-2.65
2022-12-18T19:21:01.605Z,-2.72
2022-12-18T19:23:06.765Z,-2.71
2022-12-18T19:25:12.138Z,-2.83
2022-12-18T19:27:20.247Z,-2.83
2022-12-18T19:29:25.571Z,-2.79
2022-12-18T19:31:36.081Z,-2.82
2022-12-18T19:33:44.024Z,-2.80
2022-12-18T19:35:49.215Z,-2.81
2022-12-18T19:37:56.648Z,-2.78
2022-12-18T19:40:02.659Z,-2.72
2022-12-18T19:42:14.060Z,-2.87
2022-12-18T19:44:20.429Z,-2.89
2022-12-18T19:46:26.588Z,-2.90
2022-12-18T19:48:31.451Z,-2.86
2022-12-18T19:50:36.700Z,-2.83
2022-12-18T19:52:41.460Z,-2.73
2022-12-18T19:54:49.078Z,-2.73
2022-12-18T19:56:53.898Z,-2.71
2022-12-18T19:58:59.249Z,-2.72
2022-12-18T20:01:04.163Z,-2.75
2022-12-18T20:03:21.620Z,-2.73
2022-12-18T20:05:28.795Z,-2.68
2022-12-18T20:07:34.019Z,-2.72
2022-12-18T20:09:40.544Z,-2.75
2022-12-18T20:11:48.969Z,-2.67
2022-12-18T20:13:54.207Z,-2.62
2022-12-18T20:15:59.308Z,-2.63
2022-12-18T20:18:04.185Z,-2.57
2022-12-18T20:20:10.210Z,-2.58
2022-12-18T20:22:15.111Z,-2.55
2022-12-18T20:24:19.949Z,-2.59
2022-12-18T20:26:24.926Z,-2.67
2022-12-18T20:28:33.331Z,-2.71
2022-12-18T20:30:41.385Z,-2.74
2022-12-18T20:32:46.135Z,-2.72
2022-12-18T20:34:50.924Z,-2.72
2022-12-18T20:36:56.837Z,-2.68
2022-12-18T20:39:02.785Z,-2.76
2022-12-18T20:41:11.849Z,-2.80
2022-12-18T20:43:17.493Z,-2.75
2022-12-18T20:45:24.981Z,-2.75
2022-12-18T20:47:29.861Z,-2.82
2022-12-18T20:49:34.643Z,-2.72
2022-12-18T20:51:39.615Z,-2.69
2022-12-18T20:53:45.622Z,-2.69
2022-12-18T20:55:50.566Z,-2.74
2022-12-18T20:57:55.515Z,-2.71
2022-12-18T21:00:00.509Z,-2.66
2022-12-18T21:02:07.738Z,-2.71
2022-12-18T21:04:12.999Z,-2.67
2022-12-18T21:06:20.987Z,-2.67
2022-12-18T21:08:25.896Z,-2.67
2022-12-18T21:10:30.703Z,-2.64
2022-12-18T21:12:42.688Z,-2.62
2022-12-18T21:14:55.703Z,-2.60
2022-12-18T21:17:02.365Z,-2.57
2022-12-18T21:19:10.034Z,-2.64
2022-12-18T21:21:14.883Z,-2.67
2022-12-18T21:23:19.877Z,-2.67
2022-12-18T21:25:25.259Z,-2.63
2022-12-18T21:27:30.660Z,-2.55
2022-12-18T21:29:35.950Z,-2.60
2022-12-18T21:31:43.039Z,-2.60
2022-12-18T21:33:47.835Z,-2.72
2022-12-18T21:35:55.845Z,-2.71
2022-12-18T21:38:01.427Z,-2.67
2022-12-18T21:40:10.154Z,-2.66
2022-12-18T21:42:27.711Z,-2.64
2022-12-18T21:44:33.970Z,-2.66
2022-12-18T21:46:54.866Z,-2.66
2022-12-18T21:49:01.862Z,-2.71
2022-12-18T21:51:09.488Z,-2.79
2022-12-18T21:53:14.287Z,-2.81
2022-12-18T21:55:19.286Z,-2.76
2022-12-18T21:57:24.094Z,-2.67
2022-12-18T21:59:30.580Z,-2.64
2022-12-18T22:01:37.073Z,-2.62
2022-12-18T22:03:42.709Z,-2.55
2022-12-18T22:05:50.593Z,-2.54
2022-12-18T22:08:11.990Z,-2.51
2022-12-18T22:10:16.987Z,-2.52
2022-12-18T22:12:35.664Z,-2.47
2022-12-18T22:14:41.734Z,-2.40
2022-12-18T22:16:46.997Z,-2.40
2022-12-18T22:18:52.823Z,-2.39
2022-12-18T22:21:04.467Z,-2.31
2022-12-18T22:23:13.129Z,-2.31
2022-12-18T22:25:18.066Z,-2.33
2022-12-18T22:27:22.869Z,-2.29
2022-12-18T22:29:40.612Z,-2.32
2022-12-18T22:31:45.582Z,-2.22
2022-12-18T22:33:51.226Z,-2.20
2022-12-18T22:35:56.027Z,-2.20
2022-12-18T22:38:06.345Z,-2.12
2022-12-18T22:40:24.105Z,-2.16
2022-12-18T22:42:30.295Z,-2.18
2022-12-18T22:44:35.050Z,-2.11
2022-12-18T22:46:41.868Z,-2.17
2022-12-18T22:48:47.235Z,-2.26
2022-12-18T22:50:53.436Z,-2.19
2022-12-18T22:53:04.333Z,-2.15
2022-12-18T22:55:10.539Z,-2.12
2022-12-18T22:57:18.063Z,-2.11
2022-12-18T22:59:25.045Z,-2.14
2022-12-18T23:01:31.930Z,-2.14
2022-12-18T23:03:38.262Z,-2.11
2022-12-18T23:05:43.121Z,-2.08
2022-12-18T23:07:48.189Z,-2.09
2022-12-18T23:10:00.722Z,-2.11
2022-12-18T23:12:06.757Z,-2.18
2022-12-18T23:14:14.849Z,-2.16
2022-12-18T23:16:21.214Z,-2.19
2022-12-18T23:18:26.230Z,-2.21
2022-12-18T23:20:31.030Z,-2.13
2022-12-18T23:22:35.905Z,-2.12
2022-12-18T23:24:40.691Z,-2.14
2022-12-18T23:26:45.462Z,-2.21
2022-12-18T23:28:50.603Z,-2.28
2022-12-18T23:31:00.273Z,-2.31
2022-12-18T23:33:08.391Z,-2.36
2022-12-18T23:35:14.213Z,-2.26
2022-12-18T23:37:49.775Z,-2.29
2022-12-18T23:39:46.184Z,-2.26
2022-12-18T23:41:50.968Z,-2.28
2022-12-18T23:43:57.503Z,-2.17
2022-12-18T23:46:05.062Z,-2.11
2022-12-18T23:48:09.912Z,-2.14
2022-12-18T23:50:14.695Z,-2.20
2022-12-18T23:52:19.538Z,-2.16
2022-12-18T23:54:32.877Z,-2.17
2022-12-18T23:56:38.995Z,-2.13
2022-12-18T23:58:46.201Z,-2.11
